^^
Saratoga-Weather Station Historical Data
Daily Summary for January 4, 2020 Units:  English    Metric   Both
Daily Weekly Monthly Yearly Custom
  High: Low: Average:
Temperature: 45 °F 36.9 °F 40.8 °F
Dew Point: 42.4 °F 35.6 °F 38.3 °F
Humidity: 96% 87% 91%
Wind Speed: 13mph 0mph 2.2mph
Wind Gust: 18mph - -
Wind- - West
Pressure: 30.6 in 30.4 in -
Precipitation: 0 in    
Historical Graphs
 
 
Tabular Data for January 4, 2020
Time Temperature Dew Point Pressure Wind Wind Speed Wind Gust Humidity Rainfall Rate (Hourly) solar
00:01 45 °F 42.4 °F 30.4 in Calm   1 mph 91% 0 in 0 W/m2
00:06 44.8 °F 42.3 °F 30.4 in Calm     91% 0 in 0 W/m2
00:11 44.6 °F 42.1 °F 30.4 in Calm     91% 0 in 0 W/m2
00:16 44.4 °F 41.9 °F 30.4 in Calm   4 mph 91% 0 in 0 W/m2
00:21 44.4 °F 41.9 °F 30.4 in Calm     91% 0 in 0 W/m2
00:26 44.2 °F 41.7 °F 30.4 in Calm   1 mph 91% 0 in 0 W/m2
00:31 44.2 °F 41.7 °F 30.4 in Calm     91% 0 in 0 W/m2
00:36 44.1 °F 41.5 °F 30.4 in Calm   1 mph 91% 0 in 0 W/m2
00:41 43.9 °F 41.4 °F 30.4 in WNW 0.9 mph 3 mph 91% 0 in 0 W/m2
00:46 43.7 °F 41 °F 30.4 in Calm   3 mph 90% 0 in 0 W/m2
00:51 43.5 °F 40.8 °F 30.4 in Calm     90% 0 in 0 W/m2
00:56 43.3 °F 40.6 °F 30.4 in Calm     90% 0 in 0 W/m2
01:01 43.3 °F 40.6 °F 30.4 in Calm     90% 0 in 0 W/m2
01:06 43.2 °F 40.5 °F 30.4 in Calm     90% 0 in 0 W/m2
01:11 43 °F 40.3 °F 30.4 in Calm   2 mph 90% 0 in 0 W/m2
01:16 43 °F 40.3 °F 30.4 in Calm   1 mph 90% 0 in 0 W/m2
01:21 42.6 °F 39.9 °F 30.4 in Calm     90% 0 in 0 W/m2
01:26 42.6 °F 39.9 °F 30.4 in Calm     90% 0 in 0 W/m2
01:31 42.4 °F 39.7 °F 30.4 in Calm     90% 0 in 0 W/m2
01:36 42.3 °F 39.6 °F 30.4 in Calm     90% 0 in 0 W/m2
01:42 42.1 °F 39.6 °F 30.4 in Calm     91% 0 in 0 W/m2
01:47 41.9 °F 39.4 °F 30.4 in Calm     91% 0 in 0 W/m2
01:52 41.5 °F 39.2 °F 30.4 in Calm     91% 0 in 0 W/m2
01:57 41.4 °F 39 °F 30.4 in Calm     91% 0 in 0 W/m2
02:02 41.2 °F 39 °F 30.4 in Calm     92% 0 in 0 W/m2
02:07 41 °F 38.8 °F 30.4 in Calm     92% 0 in 0 W/m2
02:12 41 °F 38.8 °F 30.4 in Calm     92% 0 in 0 W/m2
02:17 41 °F 38.8 °F 30.4 in Calm   3 mph 92% 0 in 0 W/m2
02:22 40.8 °F 38.7 °F 30.4 in Calm     92% 0 in 0 W/m2
02:27 40.8 °F 38.7 °F 30.4 in WSW 2 mph 2 mph 92% 0 in 0 W/m2
02:32 40.8 °F 38.7 °F 30.4 in Calm     92% 0 in 0 W/m2
02:37 40.8 °F 38.7 °F 30.4 in Calm     92% 0 in 0 W/m2
02:42 40.6 °F 38.5 °F 30.4 in Calm     92% 0 in 0 W/m2
02:47 40.6 °F 38.3 °F 30.4 in Calm     91% 0 in 0 W/m2
02:52 40.6 °F 38.3 °F 30.4 in Calm   4 mph 91% 0 in 0 W/m2
02:57 40.5 °F 38.1 °F 30.4 in Calm     91% 0 in 0 W/m2
03:02 40.5 °F 38.1 °F 30.4 in Calm     91% 0 in 0 W/m2
03:07 40.5 °F 38.1 °F 30.4 in Calm     91% 0 in 0 W/m2
03:12 40.5 °F 38.1 °F 30.4 in Calm     91% 0 in 0 W/m2
03:17 40.5 °F 38.1 °F 30.4 in Calm     91% 0 in 0 W/m2
03:23 40.5 °F 38.1 °F 30.4 in Calm     91% 0 in 0 W/m2
03:28 40.6 °F 38.3 °F 30.4 in Calm   2 mph 91% 0 in 0 W/m2
03:33 40.6 °F 38.3 °F 30.4 in Calm     91% 0 in 0 W/m2
03:38 40.6 °F 38.3 °F 30.4 in Calm   2 mph 91% 0 in 0 W/m2
03:43 40.5 °F 37.8 °F 30.4 in Calm     90% 0 in 0 W/m2
03:48 40.5 °F 37.8 °F 30.4 in Calm   1 mph 90% 0 in 0 W/m2
03:53 40.1 °F 37.8 °F 30.4 in Calm     91% 0 in 0 W/m2
03:58 39.9 °F 37.6 °F 30.4 in Calm     91% 0 in 0 W/m2
04:03 39.9 °F 37.6 °F 30.4 in Calm   1 mph 91% 0 in 0 W/m2
04:08 39.9 °F 37.6 °F 30.4 in Calm     91% 0 in 0 W/m2
04:13 40.1 °F 37.8 °F 30.4 in Calm     91% 0 in 0 W/m2
04:18 40.1 °F 37.8 °F 30.4 in Calm     91% 0 in 0 W/m2
04:23 40.1 °F 37.8 °F 30.4 in Calm   2 mph 91% 0 in 0 W/m2
04:28 40.3 °F 38.1 °F 30.4 in Calm     92% 0 in 0 W/m2
04:33 40.5 °F 38.3 °F 30.4 in Calm     92% 0 in 0 W/m2
04:38 40.6 °F 38.5 °F 30.4 in Calm   2 mph 92% 0 in 0 W/m2
04:43 40.6 °F 38.5 °F 30.4 in Calm     92% 0 in 0 W/m2
04:48 40.6 °F 38.5 °F 30.4 in Calm     92% 0 in 0 W/m2
04:53 40.5 °F 38.1 °F 30.4 in Calm   10 mph 91% 0 in 0 W/m2
04:58 40.3 °F 37.9 °F 30.4 in Calm     91% 0 in 0 W/m2
05:03 40.3 °F 37.9 °F 30.4 in Calm   8 mph 91% 0 in 0 W/m2
05:08 39.9 °F 37.6 °F 30.4 in Calm     91% 0 in 0 W/m2
05:13 39.7 °F 37.6 °F 30.4 in Calm   3 mph 92% 0 in 0 W/m2
05:18 39.7 °F 37.6 °F 30.4 in Calm   4 mph 92% 0 in 0 W/m2
05:23 39.6 °F 37.4 °F 30.4 in Calm   1 mph 92% 0 in 0 W/m2
05:28 39.4 °F 37.2 °F 30.4 in Calm   1 mph 92% 0 in 0 W/m2
05:33 39.4 °F 37.2 °F 30.4 in Calm   3 mph 92% 0 in 0 W/m2
05:38 39.4 °F 37.6 °F 30.5 in Calm     93% 0 in 0 W/m2
05:43 39.2 °F 37.4 °F 30.5 in Calm     93% 0 in 0 W/m2
05:48 39 °F 37.2 °F 30.5 in Calm     93% 0 in 0 W/m2
05:53 38.8 °F 37 °F 30.5 in Calm     93% 0 in 0 W/m2
05:58 38.7 °F 36.9 °F 30.5 in Calm   1 mph 93% 0 in 0 W/m2
06:03 38.5 °F 36.7 °F 30.5 in Calm     93% 0 in 0 W/m2
06:08 38.3 °F 36.5 °F 30.5 in Calm     93% 0 in 0 W/m2
06:13 37.9 °F 36.3 °F 30.5 in Calm     94% 0 in 0 W/m2
06:18 37.8 °F 36.1 °F 30.5 in Calm   1 mph 94% 0 in 0 W/m2
06:23 37.6 °F 36 °F 30.5 in Calm     94% 0 in 0 W/m2
06:28 37.6 °F 36 °F 30.5 in Calm   1 mph 94% 0 in 0 W/m2
06:33 37.4 °F 35.8 °F 30.5 in Calm     94% 0 in 0 W/m2
06:38 37.2 °F 36 °F 30.5 in Calm     95% 0 in 0 W/m2
06:43 37 °F 35.8 °F 30.5 in Calm   4 mph 95% 0 in 0 W/m2
06:48 37 °F 35.8 °F 30.5 in Calm     95% 0 in 0 W/m2
06:53 37 °F 35.8 °F 30.5 in Calm     95% 0 in 0 W/m2
06:58 37 °F 35.8 °F 30.5 in Calm   8 mph 95% 0 in 0 W/m2
07:03 37 °F 35.8 °F 30.5 in Calm     95% 0 in 0 W/m2
07:09 37 °F 35.8 °F 30.5 in Calm   6 mph 95% 0 in 0 W/m2
07:14 36.9 °F 35.6 °F 30.5 in Calm     95% 0 in 0 W/m2
07:19 36.9 °F 35.6 °F 30.5 in Calm   4 mph 95% 0 in 0 W/m2
07:24 36.9 °F 35.6 °F 30.5 in Calm     95% 0 in 0 W/m2
07:29 37 °F 35.8 °F 30.5 in Calm     95% 0 in 0 W/m2
07:34 37 °F 35.8 °F 30.5 in Calm   3 mph 95% 0 in 0 W/m2
07:39 37 °F 35.8 °F 30.5 in Calm     95% 0 in 0 W/m2
07:44 37 °F 36 °F 30.5 in Calm   8 mph 96% 0 in 0 W/m2
07:49 37.2 °F 36.1 °F 30.5 in Calm   2 mph 96% 0 in 0 W/m2
07:54 37.2 °F 36.1 °F 30.5 in Calm     96% 0 in 0 W/m2
07:59 37.2 °F 36 °F 30.5 in Calm   1 mph 95% 0 in 0 W/m2
08:04 37.2 °F 36 °F 30.5 in Calm   2 mph 95% 0 in 0 W/m2
08:09 37.2 °F 36 °F 30.5 in Calm     95% 0 in 0 W/m2
08:14 37.2 °F 36 °F 30.5 in Calm     95% 0 in 0 W/m2
08:19 37.2 °F 36 °F 30.5 in Calm     95% 0 in 0 W/m2
08:24 37.2 °F 36 °F 30.5 in Calm     95% 0 in 0 W/m2
08:29 37 °F 35.8 °F 30.5 in Calm     95% 0 in 0 W/m2
08:34 37 °F 35.8 °F 30.5 in Calm   3 mph 95% 0 in 0 W/m2
08:39 37.2 °F 36 °F 30.5 in SW 5 mph 5 mph 95% 0 in 0 W/m2
08:44 37.2 °F 36 °F 30.5 in SW 0.9 mph 6 mph 95% 0 in 5 W/m2
08:49 37.4 °F 36.1 °F 30.5 in Calm     95% 0 in 7 W/m2
08:54 37.6 °F 36.3 °F 30.5 in Calm   6 mph 95% 0 in 9 W/m2
08:59 37.8 °F 36.5 °F 30.5 in Calm   3 mph 95% 0 in 12 W/m2
09:04 37.8 °F 36.5 °F 30.5 in Calm   10 mph 95% 0 in 14 W/m2
09:09 37.9 °F 36.7 °F 30.5 in Calm   7 mph 95% 0 in 11 W/m2
09:14 38.1 °F 36.5 °F 30.5 in Calm   8 mph 94% 0 in 16 W/m2
09:19 38.1 °F 36.5 °F 30.5 in WSW 4 mph 6 mph 94% 0 in 16 W/m2
09:24 38.1 °F 36.5 °F 30.5 in Calm     94% 0 in 19 W/m2
09:29 38.1 °F 36.5 °F 30.5 in WSW 0.9 mph 2 mph 94% 0 in 18 W/m2
09:34 38.3 °F 36.7 °F 30.5 in Calm   4 mph 94% 0 in 16 W/m2
09:39 38.5 °F 36.9 °F 30.5 in Calm     94% 0 in 16 W/m2
09:44 38.5 °F 36.9 °F 30.5 in WNW 0.9 mph 2 mph 94% 0 in 16 W/m2
09:49 38.5 °F 36.9 °F 30.5 in Calm     94% 0 in 19 W/m2
09:54 38.5 °F 36.9 °F 30.5 in Calm   1 mph 94% 0 in 30 W/m2
09:59 38.5 °F 36.9 °F 30.5 in Calm     94% 0 in 25 W/m2
10:05 38.5 °F 36.9 °F 30.5 in Calm     94% 0 in 39 W/m2
10:10 38.7 °F 37 °F 30.5 in Calm     94% 0 in 44 W/m2
10:15 38.7 °F 37 °F 30.5 in Calm     94% 0 in 65 W/m2
10:20 38.7 °F 37 °F 30.5 in Calm   4 mph 94% 0 in 77 W/m2
10:25 38.7 °F 37 °F 30.5 in Calm     94% 0 in 69 W/m2
10:30 38.8 °F 37.2 °F 30.5 in Calm   4 mph 94% 0 in 62 W/m2
10:35 38.8 °F 37.2 °F 30.5 in Calm     94% 0 in 60 W/m2
10:40 38.8 °F 37 °F 30.5 in Calm   5 mph 93% 0 in 47 W/m2
10:45 38.8 °F 37.2 °F 30.5 in Calm     94% 0 in 100 W/m2
10:50 39 °F 37.4 °F 30.5 in Calm   4 mph 94% 0 in 84 W/m2
10:55 39.2 °F 37.6 °F 30.5 in Calm     94% 0 in 88 W/m2
11:00 39.4 °F 37.8 °F 30.5 in Calm   4 mph 94% 0 in 67 W/m2
11:05 39.6 °F 37.8 °F 30.5 in Calm   9 mph 93% 0 in 84 W/m2
11:10 39.6 °F 37.8 °F 30.5 in Calm     93% 0 in 81 W/m2
11:15 39.6 °F 37.8 °F 30.5 in WNW 10.1 mph 12 mph 93% 0 in 65 W/m2
11:20 39.6 °F 37.8 °F 30.5 in WNW 2 mph 2 mph 93% 0 in 51 W/m2
11:25 39.6 °F 37.4 °F 30.5 in Calm   12 mph 92% 0 in 67 W/m2
11:30 39.4 °F 37.2 °F 30.5 in Calm   12 mph 92% 0 in 102 W/m2
11:35 39.6 °F 37.4 °F 30.5 in Calm   6 mph 92% 0 in 155 W/m2
11:40 39.7 °F 37.6 °F 30.5 in Calm   11 mph 92% 0 in 86 W/m2
11:45 39.7 °F 37.6 °F 30.5 in WSW 4 mph 7 mph 92% 0 in 63 W/m2
11:50 39.9 °F 37.8 °F 30.5 in Calm     92% 0 in 90 W/m2
11:56 40.1 °F 37.9 °F 30.5 in West 4 mph 8 mph 92% 0 in 121 W/m2
12:01 40.3 °F 38.1 °F 30.5 in WNW 2.9 mph 4 mph 92% 0 in 135 W/m2
12:06 40.5 °F 38.3 °F 30.5 in WNW 6.9 mph 11 mph 92% 0 in 151 W/m2
12:11 40.5 °F 38.1 °F 30.5 in WSW 0.9 mph 16 mph 91% 0 in 139 W/m2
12:16 40.5 °F 38.1 °F 30.5 in West 6.9 mph 10 mph 91% 0 in 116 W/m2
12:21 40.6 °F 38.3 °F 30.5 in SW 4.9 mph 11 mph 91% 0 in 111 W/m2
12:26 40.6 °F 38.3 °F 30.5 in SW 4 mph 7 mph 91% 0 in 123 W/m2
12:31 40.6 °F 38.3 °F 30.5 in WSW 6 mph 6 mph 91% 0 in 118 W/m2
12:36 40.6 °F 37.9 °F 30.5 in West 4 mph 10 mph 90% 0 in 98 W/m2
12:41 40.6 °F 38.3 °F 30.5 in West 6 mph 13 mph 91% 0 in 123 W/m2
12:46 40.6 °F 37.9 °F 30.5 in West 6.9 mph 10 mph 90% 0 in 109 W/m2
12:51 40.6 °F 37.9 °F 30.5 in WNW 8.1 mph 17 mph 90% 0 in 98 W/m2
12:56 40.6 °F 37.9 °F 30.5 in WSW 4 mph 9 mph 90% 0 in 125 W/m2
13:01 40.8 °F 37.8 °F 30.5 in SW 2.9 mph 14 mph 89% 0 in 141 W/m2
13:06 40.8 °F 37.8 °F 30.5 in West 8.1 mph 11 mph 89% 0 in 98 W/m2
13:11 40.8 °F 37.8 °F 30.5 in West 10.1 mph 13 mph 89% 0 in 113 W/m2
13:16 40.8 °F 37.8 °F 30.5 in WNW 4.9 mph 10 mph 89% 0 in 123 W/m2
13:21 40.8 °F 37.8 °F 30.5 in West 10.1 mph 18 mph 89% 0 in 105 W/m2
13:26 40.8 °F 37.8 °F 30.5 in West 8.9 mph 11 mph 89% 0 in 107 W/m2
13:31 41 °F 37.9 °F 30.5 in WNW 4.9 mph 15 mph 89% 0 in 118 W/m2
13:36 41.2 °F 38.1 °F 30.5 in WNW 2.9 mph 5 mph 89% 0 in 137 W/m2
13:41 41.4 °F 38.3 °F 30.5 in WNW 2 mph 8 mph 89% 0 in 102 W/m2
13:46 41.5 °F 38.5 °F 30.5 in WNW 4.9 mph 10 mph 89% 0 in 114 W/m2
13:51 41.5 °F 38.5 °F 30.5 in West 2.9 mph 4 mph 89% 0 in 104 W/m2
13:56 41.7 °F 38.7 °F 30.5 in WNW 2 mph 4 mph 89% 0 in 98 W/m2
14:01 41.9 °F 38.8 °F 30.5 in WNW 6.9 mph 9 mph 89% 0 in 72 W/m2
14:06 41.7 °F 38.5 °F 30.5 in West 6 mph 8 mph 88% 0 in 91 W/m2
14:11 41.7 °F 38.5 °F 30.5 in WNW 6.9 mph 13 mph 88% 0 in 95 W/m2
14:16 41.7 °F 38.5 °F 30.5 in WSW 2.9 mph 9 mph 88% 0 in 98 W/m2
14:21 41.9 °F 38.7 °F 30.5 in NW 4.9 mph 7 mph 88% 0 in 79 W/m2
14:26 41.9 °F 38.7 °F 30.5 in Calm   6 mph 88% 0 in 54 W/m2
14:31 41.7 °F 38.1 °F 30.5 in NW 13 mph 13 mph 87% 0 in 56 W/m2
14:36 41.7 °F 38.1 °F 30.5 in West 6 mph 7 mph 87% 0 in 67 W/m2
14:41 41.7 °F 38.1 °F 30.5 in West 11 mph 15 mph 87% 0 in 76 W/m2
14:46 41.7 °F 38.1 °F 30.5 in SW 8.9 mph 11 mph 87% 0 in 91 W/m2
14:51 41.7 °F 38.1 °F 30.5 in WNW 6.9 mph 13 mph 87% 0 in 81 W/m2
14:57 41.9 °F 38.3 °F 30.5 in SW 8.9 mph 11 mph 87% 0 in 54 W/m2
15:02 42.1 °F 38.5 °F 30.5 in Calm   2 mph 87% 0 in 39 W/m2
15:07 42.1 °F 38.5 °F 30.5 in WSW 2.9 mph 10 mph 87% 0 in 28 W/m2
15:12 42.1 °F 38.8 °F 30.5 in WNW 2 mph 6 mph 88% 0 in 47 W/m2
15:17 42.1 °F 38.8 °F 30.5 in Calm   7 mph 88% 0 in 53 W/m2
15:22 42.1 °F 38.8 °F 30.5 in WSW 2.9 mph 10 mph 88% 0 in 47 W/m2
15:27 42.1 °F 38.8 °F 30.5 in WNW 6.9 mph 12 mph 88% 0 in 40 W/m2
15:32 42.1 °F 38.5 °F 30.5 in West 8.9 mph 10 mph 87% 0 in 56 W/m2
15:37 42.1 °F 38.5 °F 30.5 in WNW 0.9 mph 11 mph 87% 0 in 37 W/m2
15:42 42.1 °F 38.8 °F 30.5 in WNW 2.9 mph 7 mph 88% 0 in 32 W/m2
15:47 42.1 °F 38.8 °F 30.5 in WNW 4.9 mph 11 mph 88% 0 in 30 W/m2
15:52 42.1 °F 38.8 °F 30.5 in WNW 4.9 mph 6 mph 88% 0 in 16 W/m2
15:57 42.1 °F 38.8 °F 30.5 in WNW 4.9 mph 10 mph 88% 0 in 25 W/m2
16:02 42.1 °F 38.8 °F 30.5 in WNW 2 mph 3 mph 88% 0 in 18 W/m2
16:07 42.1 °F 38.8 °F 30.5 in West 2 mph 10 mph 88% 0 in 9 W/m2
16:12 42.1 °F 38.8 °F 30.5 in NW 4 mph 10 mph 88% 0 in 12 W/m2
16:17 42.1 °F 39 °F 30.5 in Calm   7 mph 89% 0 in 12 W/m2
16:22 42.1 °F 39 °F 30.5 in West 2.9 mph 10 mph 89% 0 in 11 W/m2
16:27 41.9 °F 38.8 °F 30.5 in WNW 2.9 mph 5 mph 89% 0 in 11 W/m2
16:32 41.9 °F 38.8 °F 30.5 in West 0.9 mph 4 mph 89% 0 in 7 W/m2
16:37 41.9 °F 38.8 °F 30.5 in West 2 mph 5 mph 89% 0 in 7 W/m2
16:42 41.7 °F 38.7 °F 30.5 in WNW 2.9 mph 6 mph 89% 0 in 0 W/m2
16:47 41.9 °F 38.8 °F 30.5 in West 2.9 mph 5 mph 89% 0 in 0 W/m2
16:52 41.9 °F 38.8 °F 30.5 in Calm   6 mph 89% 0 in 0 W/m2
16:57 41.9 °F 38.8 °F 30.5 in Calm   5 mph 89% 0 in 0 W/m2
17:02 41.9 °F 38.8 °F 30.5 in West 2 mph 6 mph 89% 0 in 0 W/m2
17:07 41.9 °F 39.2 °F 30.5 in WNW 4 mph 8 mph 90% 0 in 0 W/m2
17:13 41.9 °F 39.2 °F 30.5 in West 2.9 mph 3 mph 90% 0 in 0 W/m2
17:18 41.7 °F 39 °F 30.5 in West 0.9 mph 1 mph 90% 0 in 0 W/m2
17:23 41.7 °F 39 °F 30.5 in Calm     90% 0 in 0 W/m2
17:28 41.7 °F 39 °F 30.5 in WNW 2 mph 3 mph 90% 0 in 0 W/m2
17:33 41.9 °F 39.2 °F 30.5 in Calm   4 mph 90% 0 in 0 W/m2
17:38 41.9 °F 39.2 °F 30.5 in Calm     90% 0 in 0 W/m2
17:43 41.7 °F 39 °F 30.5 in Calm     90% 0 in 0 W/m2
17:48 41.7 °F 39 °F 30.5 in Calm     90% 0 in 0 W/m2
17:53 41.7 °F 39 °F 30.5 in Calm     90% 0 in 0 W/m2
17:58 41.7 °F 39 °F 30.5 in Calm     90% 0 in 0 W/m2
18:03 41.5 °F 39.2 °F 30.5 in WSW 2.9 mph 5 mph 91% 0 in 0 W/m2
18:08 41.7 °F 39.2 °F 30.5 in Calm     91% 0 in 0 W/m2
18:13 41.7 °F 39.2 °F 30.5 in SW 4.9 mph 7 mph 91% 0 in 0 W/m2
18:18 42.1 °F 39.6 °F 30.5 in SW 4.9 mph 5 mph 91% 0 in 0 W/m2
18:23 42.1 °F 39.6 °F 30.5 in Calm   7 mph 91% 0 in 0 W/m2
18:28 42.3 °F 39.7 °F 30.5 in WSW 2.9 mph 9 mph 91% 0 in 0 W/m2
18:33 42.3 °F 39.6 °F 30.5 in West 2.9 mph 4 mph 90% 0 in 0 W/m2
18:38 42.3 °F 39.6 °F 30.5 in Calm   9 mph 90% 0 in 0 W/m2
18:43 42.4 °F 39.7 °F 30.5 in West 2.9 mph 4 mph 90% 0 in 0 W/m2
18:49 42.4 °F 39.7 °F 30.5 in WSW 2.9 mph 7 mph 90% 0 in 0 W/m2
18:54 42.4 °F 39.4 °F 30.5 in WSW 0.9 mph 7 mph 89% 0 in 0 W/m2
18:59 42.6 °F 39.6 °F 30.5 in Calm   4 mph 89% 0 in 0 W/m2
19:04 42.6 °F 39.6 °F 30.5 in West 0.9 mph 5 mph 89% 0 in 0 W/m2
19:09 42.6 °F 39.6 °F 30.5 in WSW 2.9 mph 7 mph 89% 0 in 0 W/m2
19:14 42.6 °F 39.4 °F 30.5 in WSW 2.9 mph 4 mph 88% 0 in 0 W/m2
19:19 42.6 °F 39.4 °F 30.5 in West 4 mph 7 mph 88% 0 in 0 W/m2
19:24 42.6 °F 39.4 °F 30.5 in Calm   3 mph 88% 0 in 0 W/m2
19:29 42.6 °F 39.4 °F 30.5 in WSW 8.1 mph 9 mph 88% 0 in 0 W/m2
19:34 42.6 °F 39.4 °F 30.5 in WSW 4 mph 8 mph 88% 0 in 0 W/m2
19:39 42.6 °F 39.4 °F 30.5 in Calm   4 mph 88% 0 in 0 W/m2
19:44 42.6 °F 39.4 °F 30.5 in West 0.9 mph 6 mph 88% 0 in 0 W/m2
19:49 42.6 °F 39.6 °F 30.5 in West 2.9 mph 7 mph 89% 0 in 0 W/m2
19:54 42.6 °F 39.6 °F 30.5 in Calm   6 mph 89% 0 in 0 W/m2
19:59 42.6 °F 39.6 °F 30.5 in West 4 mph 4 mph 89% 0 in 0 W/m2
20:04 42.6 °F 39.6 °F 30.5 in Calm   6 mph 89% 0 in 0 W/m2
20:09 42.6 °F 39.6 °F 30.5 in Calm   2 mph 89% 0 in 0 W/m2
20:14 42.4 °F 39.4 °F 30.5 in West 0.9 mph 1 mph 89% 0 in 0 W/m2
20:19 42.4 °F 39.4 °F 30.5 in WSW 0.9 mph 4 mph 89% 0 in 0 W/m2
20:24 42.4 °F 39.4 °F 30.5 in West 6 mph 6 mph 89% 0 in 0 W/m2
20:29 42.4 °F 39.4 °F 30.5 in Calm   6 mph 89% 0 in 0 W/m2
20:34 42.4 °F 39.4 °F 30.6 in WNW 2.9 mph 4 mph 89% 0 in 0 W/m2
20:39 42.4 °F 39.4 °F 30.6 in WSW 2 mph 10 mph 89% 0 in 0 W/m2
20:44 42.6 °F 39.6 °F 30.6 in WSW 6.9 mph 8 mph 89% 0 in 0 W/m2
20:49 42.6 °F 39.6 °F 30.6 in WNW 4.9 mph 7 mph 89% 0 in 0 W/m2
20:54 42.6 °F 39.6 °F 30.6 in SW 4 mph 8 mph 89% 0 in 0 W/m2
20:59 42.6 °F 39.6 °F 30.6 in WNW 2.9 mph 3 mph 89% 0 in 0 W/m2
21:04 42.6 °F 39.6 °F 30.6 in West 6.9 mph 11 mph 89% 0 in 0 W/m2
21:09 42.6 °F 39.6 °F 30.6 in WSW 6.9 mph 9 mph 89% 0 in 0 W/m2
21:14 42.6 °F 39.6 °F 30.6 in WSW 4 mph 10 mph 89% 0 in 0 W/m2
21:19 42.6 °F 39.6 °F 30.6 in WSW 4.9 mph 7 mph 89% 0 in 0 W/m2
21:24 42.6 °F 39.6 °F 30.5 in WNW 6 mph 10 mph 89% 0 in 0 W/m2
21:29 42.6 °F 39.6 °F 30.6 in West 2 mph 9 mph 89% 0 in 0 W/m2
21:34 42.4 °F 39.4 °F 30.6 in West 6 mph 11 mph 89% 0 in 0 W/m2
21:39 42.4 °F 39.4 °F 30.6 in WSW 2.9 mph 9 mph 89% 0 in 0 W/m2
21:44 42.4 °F 39.4 °F 30.5 in SW 2.9 mph 10 mph 89% 0 in 0 W/m2
21:49 42.4 °F 39.4 °F 30.5 in WSW 4.9 mph 9 mph 89% 0 in 0 W/m2
21:54 42.4 °F 39.4 °F 30.6 in West 6 mph 13 mph 89% 0 in 0 W/m2
21:59 42.4 °F 39.4 °F 30.6 in West 8.1 mph 10 mph 89% 0 in 0 W/m2
22:04 42.4 °F 39.4 °F 30.6 in SW 8.1 mph 12 mph 89% 0 in 0 W/m2
22:09 42.4 °F 39.4 °F 30.6 in West 8.1 mph 10 mph 89% 0 in 0 W/m2
22:14 42.4 °F 39.4 °F 30.6 in WSW 11 mph 14 mph 89% 0 in 0 W/m2
22:19 42.4 °F 39.4 °F 30.6 in WSW 8.1 mph 9 mph 89% 0 in 0 W/m2
22:24 42.3 °F 39.2 °F 30.6 in WSW 4.9 mph 14 mph 89% 0 in 0 W/m2
22:29 42.3 °F 39.6 °F 30.6 in West 2.9 mph 5 mph 90% 0 in 0 W/m2
22:34 42.1 °F 39.4 °F 30.6 in WSW 4 mph 11 mph 90% 0 in 0 W/m2
22:39 42.1 °F 39.4 °F 30.6 in WSW 4.9 mph 7 mph 90% 0 in 0 W/m2
22:44 42.1 °F 39.4 °F 30.6 in West 6 mph 10 mph 90% 0 in 0 W/m2
22:49 42.1 °F 39.4 °F 30.6 in WSW 6.9 mph 8 mph 90% 0 in 0 W/m2
22:54 42.1 °F 39.4 °F 30.6 in West 4 mph 10 mph 90% 0 in 0 W/m2
22:59 42.1 °F 39.4 °F 30.6 in West 6 mph 9 mph 90% 0 in 0 W/m2
23:04 41.9 °F 39.4 °F 30.6 in SW 4.9 mph 10 mph 91% 0 in 0 W/m2
23:09 41.9 °F 39.4 °F 30.6 in West 10.1 mph 12 mph 91% 0 in 0 W/m2
23:14 41.9 °F 39.4 °F 30.6 in SW 6 mph 8 mph 91% 0 in 0 W/m2
23:19 41.9 °F 39.4 °F 30.6 in WSW 8.1 mph 11 mph 91% 0 in 0 W/m2
23:24 42.1 °F 39.6 °F 30.6 in WSW 4.9 mph 10 mph 91% 0 in 0 W/m2
23:30 42.1 °F 39.6 °F 30.6 in West 4 mph 12 mph 91% 0 in 0 W/m2
23:35 42.1 °F 39.6 °F 30.6 in West 11 mph 12 mph 91% 0 in 0 W/m2
23:40 42.1 °F 39.6 °F 30.6 in WSW 6.9 mph 7 mph 91% 0 in 0 W/m2
23:45 42.1 °F 39.6 °F 30.6 in West 4 mph 8 mph 91% 0 in 0 W/m2
23:50 41.9 °F 39.4 °F 30.6 in WNW 8.1 mph 8 mph 91% 0 in 0 W/m2
23:55 41.9 °F 39.4 °F 30.6 in WSW 10.1 mph 12 mph 91% 0 in 0 W/m2
Juneau County Weather
Compliments of Weather Underground - 4 mb